Time;durP1;ratioP1;P1;durP2;ratioP2;P2;SDS_P1;SDS_P2;PMS_P1;PMS_P2;Temp;Humidity;BMP_temperature;BMP_pressure;BME280_temperature;BME280_humidity;BME280_pressure;Samples;Min_cycle;Max_cycle;Signal;HPM_P1;HPM_P2
2022/03/19 00:00:59;;;;;;;0.43;0.15;;;20.90;35.50;;;;;;5026255;28;20129;-61
2022/03/19 00:03:26;;;;;;;1.65;0.10;;;20.90;35.50;;;;;;5027725;28;20053;-61
2022/03/19 00:05:54;;;;;;;0.20;0.10;;;20.90;35.50;;;;;;5025742;28;20426;-60
2022/03/19 00:08:21;;;;;;;0.85;0.10;;;20.90;35.50;;;;;;5025236;28;20131;-60
2022/03/19 00:10:49;;;;;;;0.57;0.10;;;20.90;35.50;;;;;;5025898;28;20041;-60
2022/03/19 00:13:18;;;;;;;0.20;0.20;;;20.90;35.50;;;;;;5026012;28;20045;-61
2022/03/19 00:15:45;;;;;;;0.10;0.10;;;20.90;35.60;;;;;;5026846;28;20037;-61
2022/03/19 00:18:12;;;;;;;0.30;0.10;;;20.80;35.50;;;;;;5027109;28;20391;-62
2022/03/19 00:20:39;;;;;;;0.77;0.10;;;20.80;35.50;;;;;;5025390;28;20042;-60
2022/03/19 00:23:08;;;;;;;0.45;0.10;;;20.80;35.50;;;;;;5025829;28;20092;-61
2022/03/19 00:25:35;;;;;;;0.20;0.10;;;20.80;35.50;;;;;;5026117;28;20030;-61
2022/03/19 00:28:02;;;;;;;0.28;0.20;;;20.80;35.50;;;;;;5025913;28;20131;-60
2022/03/19 00:30:31;;;;;;;0.10;0.00;;;20.80;35.50;;;;;;5025698;28;20041;-61
2022/03/19 00:32:58;;;;;;;0.85;0.13;;;20.80;35.50;;;;;;5025676;28;20415;-61
2022/03/19 00:35:26;;;;;;;0.10;0.10;;;20.80;35.50;;;;;;5024084;28;20844;-60
2022/03/19 00:37:53;;;;;;;0.90;0.10;;;20.80;35.50;;;;;;5025469;28;20042;-60
2022/03/19 00:40:23;;;;;;;0.17;0.10;;;20.70;35.50;;;;;;5025463;28;20567;-60
2022/03/19 00:42:51;;;;;;;2.38;0.10;;;20.80;35.50;;;;;;5025346;28;20048;-61
2022/03/19 00:45:18;;;;;;;0.10;0.08;;;20.70;35.50;;;;;;5026370;28;20055;-60
2022/03/19 00:47:46;;;;;;;0.35;0.13;;;20.80;35.60;;;;;;5025058;28;20125;-61
2022/03/19 00:50:14;;;;;;;0.20;0.10;;;20.70;35.50;;;;;;5023447;28;20033;-60
2022/03/19 00:52:41;;;;;;;0.52;0.10;;;20.70;35.50;;;;;;5025276;28;20033;-60
2022/03/19 00:55:09;;;;;;;0.52;0.20;;;20.70;35.50;;;;;;5024959;28;20131;-62
2022/03/19 00:57:41;;;;;;;0.30;0.30;;;20.70;35.50;;;;;;5026774;28;20049;-60
2022/03/19 01:00:11;;;;;;;1.58;0.20;;;20.70;35.60;;;;;;5025756;28;20507;-60
2022/03/19 01:02:40;;;;;;;0.68;0.20;;;20.70;35.60;;;;;;5025114;28;20044;-60
2022/03/19 01:05:09;;;;;;;0.10;0.10;;;20.70;35.60;;;;;;5024722;28;20041;-59
2022/03/19 01:07:42;;;;;;;1.30;0.10;;;20.70;35.60;;;;;;5025093;28;20092;-59
2022/03/19 01:10:12;;;;;;;0.38;0.20;;;20.60;35.50;;;;;;5021270;28;20088;-60
2022/03/19 01:12:40;;;;;;;0.30;0.10;;;20.60;35.60;;;;;;5022854;28;20121;-60
2022/03/19 01:15:08;;;;;;;0.35;0.10;;;20.60;35.50;;;;;;5025497;28;20049;-59
2022/03/19 01:17:35;;;;;;;0.30;0.10;;;20.60;35.60;;;;;;5023069;28;20037;-59
2022/03/19 01:20:03;;;;;;;0.10;0.10;;;20.60;35.60;;;;;;5024195;28;20658;-60
2022/03/19 01:22:33;;;;;;;0.20;0.10;;;20.60;35.60;;;;;;5025052;28;20034;-62
2022/03/19 01:25:04;;;;;;;0.10;0.10;;;20.60;35.60;;;;;;5025374;28;20057;-61
2022/03/19 01:27:31;;;;;;;0.20;0.10;;;20.60;35.60;;;;;;5026958;28;20049;-61
2022/03/19 01:29:58;;;;;;;0.17;0.10;;;20.60;35.60;;;;;;5024848;28;20507;-60
2022/03/19 01:32:25;;;;;;;0.10;0.10;;;20.60;35.60;;;;;;5025596;28;20042;-61
2022/03/19 01:34:53;;;;;;;0.10;0.10;;;20.60;35.60;;;;;;5028141;28;20042;-60
2022/03/19 01:37:20;;;;;;;0.10;0.10;;;20.60;35.60;;;;;;5028696;28;20423;-59
2022/03/19 01:39:49;;;;;;;1.40;0.22;;;20.50;35.60;;;;;;5019380;28;20052;-59
2022/03/19 01:42:23;;;;;;;0.47;0.20;;;20.50;35.60;;;;;;5029771;28;20049;-60
2022/03/19 01:44:51;;;;;;;0.17;0.10;;;20.50;35.60;;;;;;5028444;28;20041;-64
2022/03/19 01:47:18;;;;;;;0.17;0.10;;;20.50;35.60;;;;;;5028215;28;20065;-61
2022/03/19 01:49:46;;;;;;;0.20;0.10;;;20.50;35.60;;;;;;5028538;28;20095;-59
2022/03/19 01:52:13;;;;;;;0.20;0.10;;;20.50;35.60;;;;;;5029041;28;20483;-60
2022/03/19 01:54:43;;;;;;;0.77;0.20;;;20.50;35.60;;;;;;5030618;28;20120;-60
2022/03/19 01:57:14;;;;;;;0.25;0.10;;;20.50;35.60;;;;;;5028973;28;20128;-60
2022/03/19 01:59:43;;;;;;;0.20;0.10;;;20.50;35.60;;;;;;5029062;28;20065;-60
2022/03/19 02:02:13;;;;;;;0.45;0.10;;;20.50;35.60;;;;;;5027891;28;20061;-60
2022/03/19 02:04:42;;;;;;;0.10;0.10;;;20.50;35.70;;;;;;5028613;28;20669;-59
2022/03/19 02:07:11;;;;;;;0.10;0.08;;;20.40;35.60;;;;;;5028335;28;20101;-60
2022/03/19 02:09:38;;;;;;;0.10;0.10;;;20.40;35.60;;;;;;5029779;28;20407;-59
2022/03/19 02:12:07;;;;;;;0.25;0.10;;;20.40;35.70;;;;;;5027745;28;20033;-59
2022/03/19 02:14:36;;;;;;;0.52;0.20;;;20.40;35.70;;;;;;5028308;28;20116;-60
2022/03/19 02:17:05;;;;;;;0.05;0.00;;;20.40;35.70;;;;;;5028299;28;20041;-65
2022/03/19 02:19:33;;;;;;;0.77;0.10;;;20.40;35.70;;;;;;5028443;28;20107;-60
2022/03/19 02:22:00;;;;;;;0.65;0.10;;;20.40;35.60;;;;;;5028048;28;20475;-60
2022/03/19 02:27:15;;;;;;;0.10;0.10;;;20.40;35.70;;;;;;5028250;28;20073;-60
2022/03/19 02:29:42;;;;;;;0.20;0.10;;;20.40;35.70;;;;;;5028209;28;20041;-60
2022/03/19 02:32:09;;;;;;;0.10;0.10;;;20.40;35.70;;;;;;5025743;28;20041;-62
2022/03/19 02:34:36;;;;;;;0.20;0.10;;;20.40;35.70;;;;;;5021700;28;20407;-59
2022/03/19 02:37:04;;;;;;;0.10;0.10;;;20.40;35.70;;;;;;5027117;28;20128;-60
2022/03/19 02:39:33;;;;;;;0.10;0.10;;;20.40;35.70;;;;;;5028396;28;20407;-60
2022/03/19 02:42:02;;;;;;;0.22;0.00;;;20.30;36.30;;;;;;5026404;28;20124;-59
2022/03/19 02:44:29;;;;;;;0.10;0.10;;;20.30;35.70;;;;;;5021634;28;20045;-60
2022/03/19 02:46:59;;;;;;;0.10;0.10;;;20.30;35.70;;;;;;5020780;28;20595;-60
2022/03/19 02:49:26;;;;;;;0.47;0.20;;;20.30;35.70;;;;;;5021221;28;20044;-59
2022/03/19 02:51:55;;;;;;;0.00;0.00;;;20.30;35.80;;;;;;5025493;28;20046;-60
2022/03/19 02:54:26;;;;;;;0.30;0.20;;;20.30;35.70;;;;;;5027193;28;20091;-59
2022/03/19 02:56:55;;;;;;;0.08;0.08;;;20.30;35.70;;;;;;5026908;28;20045;-59
2022/03/19 02:59:25;;;;;;;0.22;0.10;;;20.30;35.70;;;;;;5027219;28;20503;-59
2022/03/19 03:01:54;;;;;;;0.10;0.10;;;20.30;35.70;;;;;;5026768;28;20041;-59
2022/03/19 03:04:22;;;;;;;0.15;0.15;;;20.30;35.70;;;;;;5026982;28;20060;-59
2022/03/19 03:06:52;;;;;;;0.28;0.10;;;20.30;35.70;;;;;;5027419;28;20049;-60
2022/03/19 03:09:21;;;;;;;0.30;0.10;;;20.30;35.70;;;;;;5028489;28;20465;-60
2022/03/19 03:11:48;;;;;;;0.47;0.10;;;20.30;35.70;;;;;;5026799;28;20116;-59
2022/03/19 03:14:18;;;;;;;0.43;0.10;;;20.20;35.70;;;;;;5026330;28;20064;-58
2022/03/19 03:16:45;;;;;;;0.10;0.10;;;20.20;35.70;;;;;;5026374;28;20037;-59
2022/03/19 03:19:13;;;;;;;0.10;0.10;;;20.30;35.80;;;;;;5027027;28;20048;-59
2022/03/19 03:21:40;;;;;;;0.38;0.10;;;20.30;35.80;;;;;;5024805;28;20045;-59
2022/03/19 03:24:09;;;;;;;0.35;0.10;;;20.20;35.70;;;;;;5025959;28;20050;-59
2022/03/19 03:26:37;;;;;;;0.10;0.10;;;20.30;35.80;;;;;;5026679;28;20065;-59
2022/03/19 03:29:04;;;;;;;0.38;0.10;;;20.20;35.70;;;;;;5026641;28;20030;-59
2022/03/19 03:31:34;;;;;;;0.95;0.10;;;20.20;35.70;;;;;;5027137;28;20038;-59
2022/03/19 03:34:01;;;;;;;0.35;0.10;;;20.20;35.70;;;;;;5026617;28;20068;-58
2022/03/19 03:36:29;;;;;;;0.30;0.10;;;20.20;35.70;;;;;;5026625;28;20050;-59
2022/03/19 03:38:56;;;;;;;0.20;0.20;;;20.20;35.70;;;;;;5024996;28;20056;-59
2022/03/19 03:41:23;;;;;;;0.28;0.10;;;20.10;35.70;;;;;;5026122;28;20029;-59
2022/03/19 03:43:50;;;;;;;0.13;0.10;;;20.20;35.80;;;;;;5026108;28;20506;-59
2022/03/19 03:46:17;;;;;;;0.20;0.20;;;20.20;35.80;;;;;;5026369;28;20049;-58
2022/03/19 03:48:46;;;;;;;0.10;0.10;;;20.20;35.80;;;;;;5027479;28;20091;-59
2022/03/19 03:51:14;;;;;;;0.10;0.10;;;20.10;35.80;;;;;;5054566;28;20518;-59
2022/03/19 03:53:41;;;;;;;0.50;0.50;;;20.20;35.80;;;;;;5026278;28;20088;-58
2022/03/19 03:56:10;;;;;;;0.10;0.10;;;20.10;35.80;;;;;;5025525;28;20048;-58
2022/03/19 03:58:39;;;;;;;1.88;0.38;;;20.10;35.80;;;;;;5025616;28;20160;-59
2022/03/19 04:01:06;;;;;;;0.15;0.10;;;20.10;35.80;;;;;;5025948;28;20046;-59
2022/03/19 04:03:33;;;;;;;0.30;0.10;;;20.10;35.80;;;;;;5027704;28;20145;-59
2022/03/19 04:06:01;;;;;;;0.10;0.10;;;20.10;35.80;;;;;;5025789;28;20037;-58
2022/03/19 04:08:29;;;;;;;0.73;0.20;;;20.10;35.80;;;;;;5025914;28;20059;-59
2022/03/19 04:10:55;;;;;;;0.38;0.38;;;20.10;35.80;;;;;;5025615;28;20069;-59
2022/03/19 04:13:23;;;;;;;0.28;0.10;;;20.00;35.70;;;;;;5025328;28;20041;-59
2022/03/19 04:15:50;;;;;;;0.38;0.15;;;20.10;35.80;;;;;;5021734;28;20128;-59
2022/03/19 04:18:17;;;;;;;0.85;0.22;;;20.10;35.80;;;;;;5026395;28;20044;-59
2022/03/19 04:20:44;;;;;;;0.95;0.10;;;20.10;35.80;;;;;;5021634;28;20112;-59
2022/03/19 04:23:12;;;;;;;0.55;0.17;;;20.10;35.90;;;;;;5021822;28;20045;-60
2022/03/19 04:25:40;;;;;;;0.10;0.10;;;20.10;35.80;;;;;;5025886;28;20145;-60
2022/03/19 04:28:07;;;;;;;0.55;0.10;;;20.10;35.90;;;;;;5025705;28;20721;-59
2022/03/19 04:30:34;;;;;;;0.75;0.75;;;20.10;35.90;;;;;;5027191;28;20099;-60
2022/03/19 04:33:04;;;;;;;0.68;0.10;;;20.10;35.90;;;;;;5025825;28;20053;-59
2022/03/19 04:38:20;;;;;;;0.97;0.10;;;20.00;35.80;;;;;;5026012;28;20124;-59
2022/03/19 04:40:48;;;;;;;0.17;0.13;;;20.00;35.90;;;;;;5025989;28;20972;-59
2022/03/19 04:43:15;;;;;;;0.20;0.20;;;20.00;35.90;;;;;;5025435;28;20048;-59
2022/03/19 04:45:43;;;;;;;0.20;0.20;;;20.00;35.90;;;;;;5027124;28;20049;-59
2022/03/19 04:48:10;;;;;;;0.73;0.28;;;20.00;35.90;;;;;;5026503;28;20515;-58
2022/03/19 04:50:38;;;;;;;0.20;0.10;;;20.00;35.90;;;;;;5026129;28;20514;-57
2022/03/19 04:53:07;;;;;;;1.15;0.22;;;20.00;35.90;;;;;;5025819;28;20072;-59
2022/03/19 04:55:36;;;;;;;0.68;0.63;;;20.00;35.90;;;;;;5025356;28;20484;-59
2022/03/19 04:58:04;;;;;;;0.43;0.38;;;20.00;35.90;;;;;;5025669;28;20051;-59
2022/03/19 05:00:32;;;;;;;0.25;0.10;;;20.00;35.90;;;;;;5026991;28;20041;-59
2022/03/19 05:02:59;;;;;;;0.20;0.10;;;20.00;35.90;;;;;;5023481;28;20042;-59
2022/03/19 05:05:26;;;;;;;0.20;0.20;;;19.90;35.90;;;;;;5022474;28;20072;-59
2022/03/19 05:07:55;;;;;;;0.73;0.40;;;19.90;36.50;;;;;;5027304;28;20038;-59
2022/03/19 05:13:09;;;;;;;1.85;0.32;;;19.90;36.00;;;;;;5026844;28;20168;-59
2022/03/19 05:15:37;;;;;;;0.30;0.15;;;19.90;36.00;;;;;;5027720;28;20137;-59
2022/03/19 05:18:04;;;;;;;0.20;0.20;;;19.90;36.20;;;;;;5026771;28;20049;-59
2022/03/19 05:20:31;;;;;;;0.17;0.17;;;19.90;35.90;;;;;;5025380;28;20064;-59
2022/03/19 05:22:59;;;;;;;0.73;0.25;;;19.90;36.00;;;;;;5026119;28;20041;-59
2022/03/19 05:25:26;;;;;;;0.30;0.20;;;19.90;36.00;;;;;;5025794;28;20049;-58
2022/03/19 05:27:53;;;;;;;0.20;0.13;;;19.90;36.00;;;;;;5026982;28;20044;-58
2022/03/19 05:30:21;;;;;;;0.30;0.30;;;19.90;36.00;;;;;;5027552;28;20068;-60
2022/03/19 05:32:49;;;;;;;0.28;0.22;;;19.90;36.00;;;;;;5028298;28;20051;-58
2022/03/19 05:35:18;;;;;;;0.93;0.30;;;19.90;36.00;;;;;;5029227;28;20364;-60
2022/03/19 05:37:46;;;;;;;0.20;0.20;;;19.90;36.00;;;;;;5025867;28;20037;-59
2022/03/19 05:40:15;;;;;;;0.50;0.38;;;19.90;36.10;;;;;;5021860;28;20564;-59
2022/03/19 05:42:42;;;;;;;0.88;0.20;;;19.80;36.00;;;;;;5030231;28;20042;-59
2022/03/19 05:45:10;;;;;;;1.05;0.28;;;19.90;36.10;;;;;;5029035;28;20094;-59
2022/03/19 05:47:40;;;;;;;0.55;0.55;;;19.90;36.10;;;;;;5028931;28;20045;-59
2022/03/19 05:50:08;;;;;;;0.35;0.35;;;19.80;36.10;;;;;;5022352;28;20037;-59
2022/03/19 05:52:35;;;;;;;0.45;0.20;;;19.80;36.10;;;;;;5022541;28;20037;-59
2022/03/19 05:55:03;;;;;;;0.77;0.20;;;19.80;36.00;;;;;;5054620;28;20049;-58
2022/03/19 05:57:30;;;;;;;0.30;0.30;;;19.80;36.10;;;;;;5057360;28;20511;-59
2022/03/19 05:59:57;;;;;;;0.77;0.63;;;19.80;36.10;;;;;;5028286;28;20037;-58
2022/03/19 06:02:25;;;;;;;0.30;0.22;;;19.80;36.10;;;;;;5028464;28;20033;-59
2022/03/19 06:04:54;;;;;;;0.65;0.30;;;19.80;36.10;;;;;;5026802;28;20067;-59
2022/03/19 06:07:21;;;;;;;0.60;0.25;;;19.80;36.10;;;;;;5028877;28;20953;-62
2022/03/19 06:09:48;;;;;;;0.38;0.38;;;19.80;36.10;;;;;;5028540;28;20052;-59
2022/03/19 06:12:16;;;;;;;0.57;0.47;;;19.80;36.20;;;;;;5030051;28;20045;-59
2022/03/19 06:14:43;;;;;;;0.82;0.22;;;19.80;36.20;;;;;;5028375;28;20064;-59
2022/03/19 06:17:10;;;;;;;0.50;0.50;;;19.80;36.80;;;;;;5028266;28;20046;-59
2022/03/19 06:19:37;;;;;;;0.80;0.50;;;19.80;36.20;;;;;;5027506;28;20037;-59
2022/03/19 06:22:06;;;;;;;0.93;0.77;;;19.80;36.20;;;;;;5027999;28;20376;-59
2022/03/19 06:24:33;;;;;;;0.47;0.40;;;19.80;36.20;;;;;;5029383;28;20037;-59
2022/03/19 06:27:00;;;;;;;0.40;0.28;;;19.80;36.20;;;;;;5028187;28;20406;-59
2022/03/19 06:29:27;;;;;;;0.82;0.40;;;19.80;36.20;;;;;;5028121;28;20037;-60
2022/03/19 06:31:54;;;;;;;0.75;0.52;;;19.80;36.20;;;;;;5027957;28;20108;-59
2022/03/19 06:34:21;;;;;;;0.93;0.90;;;19.80;36.20;;;;;;5028372;28;20034;-59
2022/03/19 06:39:34;;;;;;;0.93;0.82;;;19.80;36.20;;;;;;5029271;28;20569;-58
2022/03/19 06:42:01;;;;;;;0.70;0.60;;;19.80;36.20;;;;;;5027471;28;20041;-59
2022/03/19 06:44:28;;;;;;;0.57;0.35;;;19.80;36.20;;;;;;5027476;28;20498;-58
2022/03/19 06:46:55;;;;;;;1.15;0.60;;;19.80;36.20;;;;;;5026996;28;20495;-59
2022/03/19 06:49:22;;;;;;;0.57;0.20;;;19.80;36.20;;;;;;5021158;28;20045;-58
2022/03/19 06:51:49;;;;;;;1.13;0.98;;;19.80;36.30;;;;;;5024543;28;20562;-59
2022/03/19 06:54:16;;;;;;;1.42;1.25;;;19.80;36.20;;;;;;5028744;28;20054;-60
2022/03/19 06:56:44;;;;;;;3.58;0.68;;;19.80;36.30;;;;;;5027060;28;20060;-60
2022/03/19 06:59:11;;;;;;;1.42;0.60;;;19.80;36.20;;;;;;5027442;28;20077;-59
2022/03/19 07:01:39;;;;;;;0.93;0.80;;;19.80;36.20;;;;;;5027004;28;20038;-59
2022/03/19 07:04:06;;;;;;;1.75;1.27;;;19.80;36.20;;;;;;5027506;28;20116;-57
2022/03/19 07:06:33;;;;;;;1.08;0.93;;;19.80;36.20;;;;;;5027125;28;20053;-60
2022/03/19 07:09:00;;;;;;;1.45;1.10;;;19.80;36.20;;;;;;5027104;28;20057;-60
2022/03/19 07:11:27;;;;;;;0.93;0.75;;;19.80;36.80;;;;;;5026221;28;20060;-59
2022/03/19 07:13:56;;;;;;;1.77;0.70;;;19.80;36.20;;;;;;5026111;28;20068;-59
2022/03/19 07:16:23;;;;;;;0.93;0.70;;;19.80;36.20;;;;;;5026438;28;20033;-58
2022/03/19 07:18:51;;;;;;;1.02;0.43;;;19.90;36.30;;;;;;5027331;28;20064;-59
2022/03/19 07:21:18;;;;;;;0.65;0.65;;;19.90;36.80;;;;;;5028121;28;20045;-57
2022/03/19 07:23:45;;;;;;;1.65;0.98;;;19.90;36.20;;;;;;5026652;28;20067;-58
2022/03/19 07:26:12;;;;;;;1.30;0.70;;;19.90;36.30;;;;;;5026621;28;20041;-60
2022/03/19 07:28:40;;;;;;;1.27;1.02;;;19.90;36.30;;;;;;5027018;28;20034;-59
2022/03/19 07:31:08;;;;;;;1.70;1.48;;;19.90;36.30;;;;;;5026691;28;20040;-58
2022/03/19 07:33:36;;;;;;;0.85;0.70;;;19.90;36.30;;;;;;5027869;28;20037;-58
2022/03/19 07:36:03;;;;;;;1.13;1.02;;;19.90;36.30;;;;;;5024638;28;20080;-58
2022/03/19 07:38:31;;;;;;;1.67;1.17;;;19.90;36.30;;;;;;5026206;28;20057;-59
2022/03/19 07:43:44;;;;;;;1.65;1.02;;;19.90;36.30;;;;;;5020819;28;20068;-60
2022/03/19 07:46:13;;;;;;;1.50;0.90;;;20.00;36.40;;;;;;5024962;28;20046;-60
2022/03/19 07:48:40;;;;;;;2.45;1.95;;;20.00;36.40;;;;;;5023946;28;20077;-57
2022/03/19 07:51:09;;;;;;;2.22;1.27;;;20.00;36.50;;;;;;5026298;28;20041;-59
2022/03/19 07:53:37;;;;;;;2.95;1.05;;;20.00;36.50;;;;;;5026320;28;20042;-58
2022/03/19 07:56:05;;;;;;;3.80;2.15;;;20.00;36.50;;;;;;5025081;28;20124;-60
2022/03/19 07:58:32;;;;;;;1.83;1.73;;;20.00;36.40;;;;;;5026585;28;20144;-58
2022/03/19 08:00:59;;;;;;;2.15;1.98;;;20.00;37.10;;;;;;5026954;28;20056;-60
2022/03/19 08:03:27;;;;;;;2.20;1.80;;;20.10;36.50;;;;;;5027908;28;20148;-56
2022/03/19 08:05:55;;;;;;;3.58;2.97;;;20.10;36.50;;;;;;5023732;28;20045;-59
2022/03/19 08:08:22;;;;;;;2.83;1.65;;;20.10;36.50;;;;;;5019790;28;20037;-58
2022/03/19 08:10:49;;;;;;;1.85;1.75;;;20.10;36.50;;;;;;5019337;28;20037;-57
2022/03/19 08:13:16;;;;;;;3.03;2.42;;;20.20;36.50;;;;;;5019997;28;20030;-59
2022/03/19 08:15:43;;;;;;;3.20;2.20;;;20.20;36.50;;;;;;5027356;28;20531;-58
2022/03/19 08:18:13;;;;;;;2.20;2.05;;;20.20;36.40;;;;;;5026748;28;20049;-59
2022/03/19 08:20:41;;;;;;;2.42;2.33;;;20.20;36.40;;;;;;5025208;28;20068;-61
2022/03/19 08:23:10;;;;;;;2.20;2.00;;;20.20;36.40;;;;;;5019838;28;20487;-61
2022/03/19 08:25:38;;;;;;;4.70;3.25;;;20.30;36.40;;;;;;5019329;28;20056;-59
2022/03/19 08:28:05;;;;;;;2.40;2.20;;;20.30;36.40;;;;;;5024748;28;20037;-59
2022/03/19 08:30:32;;;;;;;2.22;2.03;;;20.30;36.30;;;;;;5027280;28;20107;-60
2022/03/19 08:33:00;;;;;;;4.10;2.47;;;20.30;36.30;;;;;;5024758;28;20037;-57
2022/03/19 08:35:27;;;;;;;2.97;2.78;;;20.30;36.30;;;;;;5025915;28;20041;-61
2022/03/19 08:40:36;;;;;;;2.97;2.78;;;20.40;36.30;;;;;;5025420;28;20041;-58
2022/03/19 08:43:03;;;;;;;3.72;3.42;;;20.40;36.20;;;;;;5025590;28;20080;-59
2022/03/19 08:45:30;;;;;;;4.90;3.47;;;20.40;36.20;;;;;;5018915;28;20049;-58
2022/03/19 08:47:58;;;;;;;3.50;3.13;;;20.40;36.20;;;;;;5025280;28;20044;-59
2022/03/19 08:50:27;;;;;;;2.40;2.20;;;20.40;36.70;;;;;;5025677;28;20606;-59
2022/03/19 08:52:55;;;;;;;3.30;3.00;;;20.50;36.10;;;;;;5025420;28;20124;-58
2022/03/19 08:55:22;;;;;;;4.80;3.38;;;20.50;36.10;;;;;;5025288;28;20079;-59
2022/03/19 08:57:49;;;;;;;4.10;3.70;;;20.50;36.10;;;;;;5026234;28;20499;-59
2022/03/19 09:00:17;;;;;;;5.00;3.08;;;20.50;36.00;;;;;;5025818;28;20100;-59
2022/03/19 09:02:44;;;;;;;3.33;3.03;;;20.50;36.00;;;;;;5025016;28;20061;-59
2022/03/19 09:05:12;;;;;;;3.50;3.13;;;20.50;36.00;;;;;;5025383;28;20060;-61
2022/03/19 09:07:39;;;;;;;3.80;3.45;;;20.60;36.00;;;;;;5025100;28;20419;-59
2022/03/19 09:10:08;;;;;;;4.03;3.67;;;20.60;36.00;;;;;;5025230;28;20125;-59
2022/03/19 09:12:36;;;;;;;4.03;3.70;;;20.60;35.90;;;;;;5026574;28;20411;-59
2022/03/19 09:15:05;;;;;;;3.15;2.85;;;20.60;35.90;;;;;;5025167;28;20061;-59
2022/03/19 09:17:32;;;;;;;4.25;3.85;;;20.70;35.90;;;;;;5024857;28;20049;-60
2022/03/19 09:19:59;;;;;;;4.55;3.30;;;20.70;35.90;;;;;;5023693;28;20057;-59
2022/03/19 09:22:26;;;;;;;3.45;3.00;;;20.70;35.80;;;;;;5025256;28;20053;-59
2022/03/19 09:24:53;;;;;;;4.18;3.70;;;20.70;35.80;;;;;;5022872;28;20542;-59
2022/03/19 09:27:22;;;;;;;4.22;3.83;;;20.70;35.70;;;;;;5025893;28;20076;-57
2022/03/19 09:29:49;;;;;;;4.53;4.22;;;20.70;35.70;;;;;;5022524;28;20060;-60
2022/03/19 09:32:18;;;;;;;5.90;4.00;;;20.70;35.70;;;;;;5024367;28;20112;-60
2022/03/19 09:34:48;;;;;;;4.13;3.80;;;20.80;35.70;;;;;;5018932;28;20025;-59
2022/03/19 09:37:15;;;;;;;4.78;4.22;;;20.80;35.60;;;;;;5023799;28;20045;-59
2022/03/19 09:39:42;;;;;;;5.43;4.15;;;20.80;35.60;;;;;;5026692;28;20035;-58
2022/03/19 09:42:12;;;;;;;4.97;3.80;;;20.80;35.60;;;;;;5025412;28;20046;-59
2022/03/19 09:44:43;;;;;;;6.07;4.95;;;20.80;35.50;;;;;;5020529;28;20455;-59
2022/03/19 09:47:10;;;;;;;5.82;4.30;;;20.80;35.50;;;;;;5024335;28;20038;-59
2022/03/19 09:49:37;;;;;;;3.75;3.45;;;20.90;35.50;;;;;;5024818;28;20030;-60
2022/03/19 09:52:05;;;;;;;3.95;3.55;;;20.90;35.50;;;;;;5021784;28;20045;-59
2022/03/19 09:54:32;;;;;;;4.85;3.60;;;20.90;35.40;;;;;;5029556;28;20550;-59
2022/03/19 09:56:59;;;;;;;4.18;3.75;;;20.90;35.40;;;;;;5028484;28;20041;-60
2022/03/19 09:59:27;;;;;;;6.47;3.60;;;20.90;35.30;;;;;;5027284;28;20041;-59
2022/03/19 10:01:55;;;;;;;5.00;4.60;;;20.90;35.30;;;;;;5022326;28;20038;-59
2022/03/19 10:04:22;;;;;;;4.25;3.85;;;21.00;35.30;;;;;;5022775;28;20041;-61
2022/03/19 10:09:42;;;;;;;4.38;3.97;;;21.00;35.30;;;;;;5029496;28;20048;-59
2022/03/19 10:12:14;;;;;;;5.38;4.20;;;21.10;35.30;;;;;;5028800;28;20038;-60
2022/03/19 10:14:42;;;;;;;3.50;3.15;;;21.10;35.20;;;;;;5028134;28;20117;-60
2022/03/19 10:17:10;;;;;;;6.03;4.15;;;21.10;35.20;;;;;;5028021;28;20041;-60
2022/03/19 10:19:50;;;;;;;4.22;3.63;;;21.10;35.10;;;;;;5028253;28;20045;-59
2022/03/19 10:22:25;;;;;;;4.75;4.35;;;21.20;35.10;;;;;;5027144;28;20037;-59
2022/03/19 10:24:58;;;;;;;6.00;4.55;;;21.20;35.10;;;;;;5028363;28;20053;-59
2022/03/19 10:27:25;;;;;;;4.60;3.53;;;21.20;35.10;;;;;;5027633;28;20052;-59
2022/03/19 10:30:15;;;;;;;4.15;3.75;;;21.20;35.00;;;;;;5027977;28;20049;-59
2022/03/19 10:32:44;;;;;;;3.78;3.58;;;21.30;35.00;;;;;;5028251;28;20045;-57
2022/03/19 10:35:26;;;;;;;4.82;4.43;;;21.30;35.60;;;;;;5028308;28;20049;-59
2022/03/19 10:37:53;;;;;;;5.60;3.95;;;21.30;34.90;;;;;;5028029;28;20037;-59
2022/03/19 10:40:21;;;;;;;3.17;2.97;;;21.40;34.90;;;;;;5027897;28;20033;-59
2022/03/19 10:42:51;;;;;;;4.78;4.35;;;21.40;34.80;;;;;;5028071;28;20045;-60
2022/03/19 10:45:22;;;;;;;3.95;3.65;;;21.40;34.80;;;;;;5027977;28;20129;-58
2022/03/19 10:47:50;;;;;;;3.83;3.53;;;21.40;34.80;;;;;;5027077;28;20041;-59
2022/03/19 10:50:22;;;;;;;4.47;4.15;;;21.40;34.70;;;;;;5028357;28;20113;-59
2022/03/19 10:52:51;;;;;;;4.35;3.95;;;21.50;34.70;;;;;;5027242;28;20112;-59
2022/03/19 10:55:19;;;;;;;5.57;4.63;;;21.50;34.60;;;;;;5027293;28;20076;-59
2022/03/19 10:57:47;;;;;;;5.50;5.05;;;21.50;34.60;;;;;;5027776;28;20132;-59
2022/03/19 11:00:16;;;;;;;5.18;4.78;;;21.60;34.50;;;;;;5027672;28;20037;-59
2022/03/19 11:02:46;;;;;;;7.18;4.30;;;21.60;34.30;;;;;;5026919;28;20088;-59
2022/03/19 11:05:19;;;;;;;4.43;4.03;;;21.70;34.30;;;;;;5020839;28;20107;-59
2022/03/19 11:07:47;;;;;;;8.43;4.22;;;21.70;34.30;;;;;;5021336;28;20072;-60
2022/03/19 11:10:15;;;;;;;4.43;4.13;;;21.80;34.30;;;;;;5021924;28;20034;-59
2022/03/19 11:12:50;;;;;;;5.18;4.30;;;21.80;34.80;;;;;;5024636;28;20046;-59
2022/03/19 11:15:20;;;;;;;5.97;3.88;;;21.80;34.20;;;;;;5027369;28;20041;-60
2022/03/19 11:17:49;;;;;;;3.40;3.17;;;21.90;34.10;;;;;;5026867;28;20344;-59
2022/03/19 11:20:18;;;;;;;6.10;4.30;;;21.90;34.10;;;;;;5026894;28;20052;-59
2022/03/19 11:22:49;;;;;;;4.07;3.33;;;22.00;34.20;;;;;;5027089;28;20084;-59
2022/03/19 11:25:23;;;;;;;4.43;3.67;;;22.00;34.10;;;;;;5027365;28;20636;-60
2022/03/19 11:27:52;;;;;;;4.85;3.30;;;22.10;34.10;;;;;;5027300;28;20053;-60
2022/03/19 11:30:22;;;;;;;4.68;4.32;;;22.10;34.00;;;;;;5027481;28;20041;-60
2022/03/19 11:33:04;;;;;;;3.38;3.05;;;22.20;34.10;;;;;;5026770;28;20037;-59
2022/03/19 11:35:32;;;;;;;3.97;3.65;;;22.20;34.00;;;;;;5027199;28;20507;-59
2022/03/19 11:38:02;;;;;;;4.55;4.18;;;22.30;34.00;;;;;;5026759;28;20038;-58
2022/03/19 11:40:32;;;;;;;4.40;3.92;;;22.30;34.00;;;;;;5027586;28;20037;-59
2022/03/19 11:43:02;;;;;;;3.67;3.45;;;22.30;33.90;;;;;;5027057;28;20427;-59
2022/03/19 11:45:39;;;;;;;3.83;3.53;;;22.40;33.90;;;;;;5024899;28;20041;-58
2022/03/19 11:48:33;;;;;;;3.22;2.88;;;22.50;33.90;;;;;;5026406;28;20049;-59
2022/03/19 11:51:36;;;;;;;5.22;4.45;;;22.50;33.80;;;;;;5026541;28;20052;-59
2022/03/19 11:54:05;;;;;;;4.35;3.75;;;22.60;33.80;;;;;;5023632;28;20072;-60
2022/03/19 11:57:06;;;;;;;3.28;3.13;;;22.60;33.80;;;;;;5026035;28;20033;-57
2022/03/19 11:59:46;;;;;;;3.58;3.25;;;22.70;33.80;;;;;;5021436;28;20048;-59
2022/03/19 12:02:14;;;;;;;3.83;3.63;;;22.70;33.70;;;;;;5026086;28;20452;-58
2022/03/19 12:04:45;;;;;;;3.35;3.05;;;22.80;33.70;;;;;;5026364;28;20099;-57
2022/03/19 12:07:33;;;;;;;3.70;3.40;;;22.80;33.70;;;;;;5026444;28;20157;-60
2022/03/19 12:10:01;;;;;;;3.55;2.92;;;22.80;33.60;;;;;;5026301;28;20049;-61
2022/03/19 12:12:31;;;;;;;3.10;2.83;;;22.90;33.60;;;;;;5027771;28;20045;-60
2022/03/19 12:14:59;;;;;;;3.45;3.25;;;22.90;33.50;;;;;;5026177;28;20038;-59
2022/03/19 12:17:31;;;;;;;3.72;3.35;;;23.00;33.50;;;;;;5025660;28;20042;-60
2022/03/19 12:20:01;;;;;;;5.68;3.88;;;23.10;33.50;;;;;;5026367;28;20586;-59
2022/03/19 12:22:35;;;;;;;4.13;3.35;;;23.10;33.40;;;;;;5026363;28;20120;-58
2022/03/19 12:25:11;;;;;;;3.38;2.92;;;23.20;33.40;;;;;;5025632;28;20634;-58
2022/03/19 12:27:38;;;;;;;3.67;3.38;;;23.20;33.30;;;;;;5027557;28;20419;-59
2022/03/19 12:30:08;;;;;;;3.38;3.08;;;23.30;33.40;;;;;;5025992;28;20053;-60
2022/03/19 12:32:49;;;;;;;3.65;3.38;;;23.30;33.30;;;;;;5026070;28;20473;-58
2022/03/19 12:35:17;;;;;;;3.53;3.25;;;23.40;33.20;;;;;;5026302;28;20044;-59
2022/03/19 12:37:51;;;;;;;2.92;2.72;;;23.50;33.20;;;;;;5025957;28;20030;-59
2022/03/19 12:40:21;;;;;;;3.95;3.50;;;23.50;33.10;;;;;;5023677;28;20103;-58
2022/03/19 12:42:53;;;;;;;2.47;2.25;;;23.50;33.10;;;;;;5026298;28;20061;-58
2022/03/19 12:45:36;;;;;;;3.15;2.95;;;23.60;33.10;;;;;;5026590;28;20578;-58
2022/03/19 12:48:09;;;;;;;3.03;2.72;;;23.60;33.00;;;;;;5025346;28;20477;-58
2022/03/19 12:50:36;;;;;;;3.05;2.75;;;23.70;33.00;;;;;;5025545;28;20151;-60
2022/03/19 12:53:05;;;;;;;4.10;3.67;;;23.70;32.90;;;;;;5026140;28;20038;-60
2022/03/19 12:55:32;;;;;;;3.17;2.22;;;23.80;32.90;;;;;;5025239;28;20041;-60
2022/03/19 12:58:01;;;;;;;3.40;3.10;;;23.80;32.80;;;;;;5026020;28;20037;-60
2022/03/19 13:00:28;;;;;;;3.45;3.15;;;23.90;32.80;;;;;;5025600;28;20077;-59
2022/03/19 13:02:56;;;;;;;2.75;2.55;;;23.90;32.80;;;;;;5026105;28;20041;-59
2022/03/19 13:05:23;;;;;;;2.50;2.22;;;24.00;32.70;;;;;;5025590;28;20661;-58
2022/03/19 13:08:06;;;;;;;3.15;2.95;;;24.00;32.60;;;;;;5025746;28;20041;-60
2022/03/19 13:10:42;;;;;;;2.47;2.33;;;24.10;32.60;;;;;;5025264;28;20041;-58
2022/03/19 13:13:10;;;;;;;3.13;2.83;;;24.20;32.60;;;;;;5025644;28;20033;-59
2022/03/19 13:15:46;;;;;;;3.45;3.25;;;24.20;32.60;;;;;;5027240;28;20045;-58